Time;durP1;ratioP1;P1;durP2;ratioP2;P2;SDS_P1;SDS_P2;PMS_P1;PMS_P2;Temp;Humidity;BMP_temperature;BMP_pressure;BME280_temperature;BME280_humidity;BME280_pressure;Samples;Min_cycle;Max_cycle;Signal;HPM_P1;HPM_P2
2022/08/10 00:00:56;;;;;;;0.00;0.00;;;16.60;99.90;;;;;;4980689;28;20449;-69
2022/08/10 00:03:24;;;;;;;0.00;0.00;;;16.60;99.90;;;;;;4980337;28;20459;-69
2022/08/10 00:05:53;;;;;;;0.00;0.00;;;16.60;99.90;;;;;;4979657;28;20502;-70
2022/08/10 00:08:23;;;;;;;0.00;0.00;;;16.50;99.90;;;;;;4981155;28;20525;-69
2022/08/10 00:10:53;;;;;;;0.00;0.00;;;16.50;99.90;;;;;;4987978;28;20459;-70
2022/08/10 00:13:22;;;;;;;0.00;0.00;;;16.50;99.90;;;;;;4999665;28;21238;-70
2022/08/10 00:15:50;;;;;;;0.00;0.00;;;16.40;99.90;;;;;;4999298;28;20859;-70
2022/08/10 00:18:21;;;;;;;0.00;0.00;;;16.40;99.90;;;;;;4999444;28;21212;-70
2022/08/10 00:21:03;;;;;;;0.00;0.00;;;16.30;99.90;;;;;;4999735;28;20442;-70
2022/08/10 00:23:31;;;;;;;0.00;0.00;;;16.30;99.90;;;;;;4999375;28;20557;-69
2022/08/10 00:26:00;;;;;;;0.00;0.00;;;16.30;99.90;;;;;;4999184;28;20529;-68
2022/08/10 00:28:28;;;;;;;0.00;0.00;;;16.30;99.90;;;;;;4999167;28;20461;-70
2022/08/10 00:30:56;;;;;;;0.00;0.00;;;16.20;99.90;;;;;;4999549;28;20454;-70
2022/08/10 00:33:25;;;;;;;0.00;0.00;;;16.10;99.90;;;;;;4999537;28;20972;-69
2022/08/10 00:35:52;;;;;;;0.00;0.00;;;16.10;99.90;;;;;;5001225;28;20486;-69
2022/08/10 00:38:20;;;;;;;0.00;0.00;;;16.10;99.90;;;;;;5000099;28;20464;-69
2022/08/10 00:40:48;;;;;;;0.00;0.00;;;16.10;99.90;;;;;;5014823;28;20513;-70
2022/08/10 00:43:17;;;;;;;0.00;0.00;;;16.10;99.90;;;;;;5012014;28;20453;-70
2022/08/10 00:45:52;;;;;;;0.00;0.00;;;16.10;99.90;;;;;;4999299;28;20485;-70
2022/08/10 00:48:27;;;;;;;0.00;0.00;;;16.00;99.90;;;;;;4999063;28;20449;-69
2022/08/10 00:50:56;;;;;;;0.00;0.00;;;16.00;99.90;;;;;;4999006;28;20634;-69
2022/08/10 00:53:24;;;;;;;0.00;0.00;;;16.00;99.90;;;;;;4999281;28;20541;-70
2022/08/10 00:55:53;;;;;;;0.00;0.00;;;16.00;99.90;;;;;;4999177;28;21001;-69
2022/08/10 00:58:43;;;;;;;0.00;0.00;;;16.00;99.90;;;;;;4999169;28;20469;-70
2022/08/10 01:01:12;;;;;;;0.00;0.00;;;16.00;99.90;;;;;;4998577;28;21138;-68
2022/08/10 01:04:01;;;;;;;0.00;0.00;;;15.90;99.90;;;;;;4999372;28;21018;-70
2022/08/10 01:06:58;;;;;;;0.00;0.00;;;15.90;99.90;;;;;;4998974;28;20479;-69
2022/08/10 01:09:34;;;;;;;0.00;0.00;;;15.90;99.90;;;;;;4998719;28;20458;-69
2022/08/10 01:12:09;;;;;;;0.00;0.00;;;15.80;99.90;;;;;;4998888;28;20441;-71
2022/08/10 01:15:05;;;;;;;0.00;0.00;;;15.80;99.90;;;;;;4998663;28;20438;-73
2022/08/10 01:17:42;;;;;;;0.00;0.00;;;15.80;99.90;;;;;;4998417;28;21145;-71
2022/08/10 01:20:25;;;;;;;0.00;0.00;;;15.80;99.90;;;;;;4998473;28;21044;-68
2022/08/10 01:23:31;;;;;;;0.00;0.00;;;15.80;99.90;;;;;;4998039;28;20458;-67
2022/08/10 01:26:30;;;;;;;0.00;0.00;;;15.80;99.90;;;;;;4998952;28;20525;-69
2022/08/10 01:29:16;;;;;;;0.00;0.00;;;15.70;99.90;;;;;;4998990;28;20468;-68
2022/08/10 01:31:50;;;;;;;0.00;0.00;;;15.70;99.90;;;;;;4998898;28;20434;-68
2022/08/10 01:34:23;;;;;;;0.00;0.00;;;15.70;99.90;;;;;;4999735;28;20534;-68
2022/08/10 01:36:54;;;;;;;0.00;0.00;;;15.60;99.90;;;;;;4999606;28;20484;-66
2022/08/10 01:39:27;;;;;;;0.00;0.00;;;15.60;99.90;;;;;;4999131;28;20472;-68
2022/08/10 01:41:57;;;;;;;0.00;0.00;;;15.60;99.90;;;;;;4998844;28;20450;-68
2022/08/10 01:44:30;;;;;;;0.00;0.00;;;15.60;99.90;;;;;;4998592;28;20445;-67
2022/08/10 01:49:53;;;;;;;0.00;0.00;;;15.60;99.90;;;;;;4998446;28;21144;-68
2022/08/10 01:52:23;;;;;;;0.00;0.00;;;15.60;99.90;;;;;;4998534;28;20537;-66
2022/08/10 01:54:53;;;;;;;0.00;0.00;;;15.50;99.90;;;;;;4998403;28;20446;-68
2022/08/10 01:57:25;;;;;;;0.00;0.00;;;15.50;99.90;;;;;;4998405;28;20881;-66
2022/08/10 01:59:54;;;;;;;0.00;0.00;;;15.50;99.90;;;;;;4989256;28;20451;-67
2022/08/10 02:02:31;;;;;;;0.00;0.00;;;15.40;99.90;;;;;;4992535;28;20449;-66
2022/08/10 02:05:02;;;;;;;0.00;0.00;;;15.50;99.90;;;;;;4988553;28;20537;-67
2022/08/10 02:07:31;;;;;;;0.00;0.00;;;15.40;99.90;;;;;;4978637;28;20442;-68
2022/08/10 02:10:04;;;;;;;0.00;0.00;;;15.40;99.90;;;;;;4981025;28;20716;-67
2022/08/10 02:12:34;;;;;;;0.00;0.00;;;15.40;99.90;;;;;;4998152;28;20476;-67
2022/08/10 02:15:08;;;;;;;0.00;0.00;;;15.40;99.90;;;;;;4997699;28;20442;-68
2022/08/10 02:20:41;;;;;;;0.00;0.00;;;15.50;99.90;;;;;;5763551;23;20531;-92
2022/08/10 02:23:19;;;;;;;0.00;0.00;;;15.50;99.90;;;;;;5029709;28;20470;-94
2022/08/10 02:25:51;;;;;;;0.00;0.00;;;15.40;99.90;;;;;;5029203;28;20454;-93
2022/08/10 02:28:22;;;;;;;0.00;0.00;;;15.30;99.90;;;;;;5033284;28;20439;-93
2022/08/10 02:31:04;;;;;;;0.00;0.00;;;15.30;99.90;;;;;;5034135;28;20469;-94
2022/08/10 02:33:36;;;;;;;0.00;0.00;;;15.30;99.90;;;;;;5033966;28;20465;-95
2022/08/10 02:36:12;;;;;;;0.00;0.00;;;15.30;99.90;;;;;;5033088;28;20473;-94
2022/08/10 02:38:43;;;;;;;0.00;0.00;;;15.40;99.90;;;;;;5032909;28;20463;-92
2022/08/10 02:41:32;;;;;;;0.00;0.00;;;15.40;99.90;;;;;;5027481;28;20477;-93
2022/08/10 02:44:26;;;;;;;0.00;0.00;;;15.30;99.90;;;;;;5033508;28;20476;-94
2022/08/10 02:47:21;;;;;;;0.00;0.00;;;15.30;99.90;;;;;;5028062;28;20494;-93
2022/08/10 02:49:55;;;;;;;0.00;0.00;;;15.20;99.90;;;;;;5029643;28;20446;-94
2022/08/10 02:52:37;;;;;;;0.00;0.00;;;15.30;99.90;;;;;;5028570;28;20488;-95
2022/08/10 02:55:13;;;;;;;0.00;0.00;;;15.20;99.90;;;;;;5026988;28;20933;-91
2022/08/10 02:57:52;;;;;;;0.00;0.00;;;15.30;99.90;;;;;;5021116;28;20572;-94
2022/08/10 03:00:46;;;;;;;0.00;0.00;;;15.30;99.90;;;;;;5021981;28;20489;-93
2022/08/10 03:03:19;;;;;;;0.00;0.00;;;15.20;99.90;;;;;;5027577;28;20468;-94
2022/08/10 03:05:53;;;;;;;0.00;0.00;;;15.20;99.90;;;;;;5031263;28;20521;-93
2022/08/10 03:08:28;;;;;;;0.00;0.00;;;15.20;99.90;;;;;;5023305;28;20484;-92
2022/08/10 03:10:59;;;;;;;0.00;0.00;;;15.20;99.90;;;;;;5027611;28;20469;-93
2022/08/10 03:13:31;;;;;;;0.00;0.00;;;15.10;99.90;;;;;;5025098;28;20430;-94
2022/08/10 03:16:01;;;;;;;0.00;0.00;;;15.20;99.90;;;;;;5025512;28;20452;-93
2022/08/10 03:18:32;;;;;;;0.00;0.00;;;15.10;99.90;;;;;;5024209;28;20474;-94
2022/08/10 03:21:00;;;;;;;0.00;0.00;;;15.20;99.90;;;;;;5024031;28;20498;-92
2022/08/10 03:23:31;;;;;;;0.00;0.00;;;15.20;99.90;;;;;;5023185;28;20806;-93
2022/08/10 03:26:01;;;;;;;0.00;0.00;;;15.20;99.90;;;;;;5019833;28;20450;-94
2022/08/10 03:28:32;;;;;;;0.00;0.00;;;15.20;99.90;;;;;;5022585;28;20450;-95
2022/08/10 03:31:01;;;;;;;0.00;0.00;;;15.20;99.90;;;;;;5024314;28;20462;-93
2022/08/10 03:33:34;;;;;;;0.00;0.00;;;15.20;99.90;;;;;;5026523;28;20453;-95
2022/08/10 03:36:02;;;;;;;0.00;0.00;;;15.20;99.90;;;;;;5025763;28;20489;-94
2022/08/10 03:38:53;;;;;;;0.00;0.00;;;15.20;99.90;;;;;;5024810;28;20482;-94
2022/08/10 03:41:28;;;;;;;0.00;0.00;;;15.20;99.90;;;;;;5024225;28;20477;-94
2022/08/10 03:44:05;;;;;;;0.00;0.00;;;15.20;99.90;;;;;;5025254;28;20680;-94
2022/08/10 03:46:37;;;;;;;0.00;0.00;;;15.20;99.90;;;;;;5025492;28;20457;-94
2022/08/10 03:49:07;;;;;;;0.00;0.00;;;15.30;99.90;;;;;;5024081;28;20470;-95
2022/08/10 03:51:37;;;;;;;0.00;0.00;;;15.20;99.90;;;;;;5024848;28;20749;-94
2022/08/10 03:54:07;;;;;;;0.00;0.00;;;15.20;99.90;;;;;;5022318;28;20504;-94
2022/08/10 03:56:38;;;;;;;0.00;0.00;;;15.20;99.90;;;;;;5022873;28;20461;-94
2022/08/10 03:59:09;;;;;;;0.00;0.00;;;15.20;99.90;;;;;;5023869;28;20882;-94
2022/08/10 04:01:39;;;;;;;0.00;0.00;;;15.20;99.90;;;;;;5031662;28;20450;-94
2022/08/10 04:04:28;;;;;;;0.00;0.00;;;15.20;99.90;;;;;;5035466;28;20458;-94
2022/08/10 04:07:03;;;;;;;0.00;0.00;;;15.20;99.90;;;;;;5020568;28;20505;-94
2022/08/10 04:09:35;;;;;;;0.00;0.00;;;15.20;99.90;;;;;;5025432;28;20815;-94
2022/08/10 04:12:27;;;;;;;0.00;0.00;;;15.30;99.90;;;;;;5022825;28;20555;-93
2022/08/10 04:14:55;;;;;;;0.00;0.00;;;15.30;99.90;;;;;;5030374;28;20459;-94
2022/08/10 04:17:25;;;;;;;0.00;0.00;;;15.30;99.90;;;;;;5031742;28;20434;-94
2022/08/10 04:20:19;;;;;;;0.00;0.00;;;15.30;99.90;;;;;;5017262;28;20457;-92
2022/08/10 04:22:49;;;;;;;0.00;0.00;;;15.30;99.90;;;;;;5010612;28;20792;-91
2022/08/10 04:25:20;;;;;;;0.00;0.00;;;15.30;99.90;;;;;;5012611;28;20564;-92
2022/08/10 04:27:49;;;;;;;0.00;0.00;;;15.40;99.90;;;;;;5011648;28;20510;-91
2022/08/10 04:30:17;;;;;;;0.00;0.00;;;15.40;99.90;;;;;;5013921;28;20454;-91
2022/08/10 04:32:48;;;;;;;0.00;0.00;;;15.50;99.90;;;;;;5017964;28;20498;-90
2022/08/10 04:35:18;;;;;;;0.00;0.00;;;15.40;99.90;;;;;;5013756;28;20454;-92
2022/08/10 04:37:48;;;;;;;0.00;0.00;;;15.40;99.90;;;;;;5014207;28;20579;-92
2022/08/10 04:40:19;;;;;;;0.00;0.00;;;15.50;99.90;;;;;;5015343;28;20461;-91
2022/08/10 04:42:59;;;;;;;0.00;0.00;;;15.50;99.90;;;;;;5023094;28;21001;-92
2022/08/10 04:45:37;;;;;;;0.00;0.00;;;15.60;99.90;;;;;;5020519;28;20742;-91
2022/08/10 04:48:20;;;;;;;0.00;0.00;;;15.60;99.90;;;;;;5027259;28;20477;-91
2022/08/10 04:51:10;;;;;;;0.00;0.00;;;15.60;99.90;;;;;;5033873;28;20469;-93
2022/08/10 04:53:47;;;;;;;0.00;0.00;;;15.60;99.90;;;;;;5019477;28;20447;-93
2022/08/10 04:56:36;;;;;;;0.00;0.00;;;15.60;99.90;;;;;;5010140;28;20455;-91
2022/08/10 04:59:05;;;;;;;0.00;0.00;;;15.70;99.90;;;;;;4996747;28;20662;-91
2022/08/10 05:01:33;;;;;;;0.00;0.00;;;15.70;99.90;;;;;;5003034;28;20501;-94
2022/08/10 05:04:21;;;;;;;0.00;0.00;;;15.80;99.90;;;;;;5030631;28;20776;-92
2022/08/10 05:07:07;;;;;;;0.00;0.00;;;15.90;99.90;;;;;;5016224;28;20450;-90
2022/08/10 05:09:35;;;;;;;0.00;0.00;;;15.90;99.90;;;;;;5011171;28;20443;-92
2022/08/10 05:12:24;;;;;;;0.00;0.00;;;16.00;99.90;;;;;;4996470;28;20510;-91
2022/08/10 05:14:52;;;;;;;0.00;0.00;;;16.00;99.90;;;;;;5009005;28;20562;-91
2022/08/10 05:17:22;;;;;;;0.00;0.00;;;16.10;99.90;;;;;;5001368;28;20462;-92
2022/08/10 05:19:50;;;;;;;0.00;0.00;;;16.10;99.90;;;;;;4995649;28;20521;-91
2022/08/10 05:22:34;;;;;;;0.00;0.00;;;16.20;99.90;;;;;;4995429;28;20490;-92
2022/08/10 05:25:08;;;;;;;0.00;0.00;;;16.20;99.90;;;;;;4995281;28;20443;-91
2022/08/10 05:27:44;;;;;;;0.00;0.00;;;16.30;99.90;;;;;;5002872;28;20465;-92
2022/08/10 05:30:17;;;;;;;0.00;0.00;;;16.40;99.90;;;;;;4998428;28;20482;-91
2022/08/10 05:32:49;;;;;;;0.00;0.00;;;16.50;99.90;;;;;;4998554;28;20558;-91
2022/08/10 05:35:30;;;;;;;0.00;0.00;;;16.60;99.90;;;;;;4998752;28;20493;-92
2022/08/10 05:38:20;;;;;;;0.00;0.00;;;16.70;99.90;;;;;;5002553;28;20478;-91
2022/08/10 05:40:50;;;;;;;0.00;0.00;;;16.80;99.90;;;;;;5017222;28;20904;-92
2022/08/10 05:43:21;;;;;;;0.00;0.00;;;16.90;99.90;;;;;;5009826;28;20506;-92
2022/08/10 05:45:50;;;;;;;0.00;0.00;;;16.90;99.90;;;;;;4997841;28;20486;-92
2022/08/10 05:48:40;;;;;;;0.00;0.00;;;17.00;99.90;;;;;;5015879;28;20517;-91
2022/08/10 05:51:28;;;;;;;0.00;0.00;;;17.10;99.90;;;;;;5018088;28;20550;-93
2022/08/10 05:53:56;;;;;;;0.00;0.00;;;17.20;99.90;;;;;;5016432;28;20459;-92
2022/08/10 05:56:34;;;;;;;0.00;0.00;;;17.20;99.90;;;;;;4998316;28;20538;-91
2022/08/10 05:59:26;;;;;;;0.00;0.00;;;17.40;99.90;;;;;;4995188;28;20480;-91
2022/08/10 06:02:20;;;;;;;0.00;0.00;;;17.40;99.90;;;;;;5005771;28;20569;-93
2022/08/10 06:05:05;;;;;;;0.00;0.00;;;17.50;99.90;;;;;;5008009;28;20467;-91
2022/08/10 06:07:36;;;;;;;0.00;0.00;;;17.60;99.90;;;;;;5018229;28;20454;-91
2022/08/10 06:10:07;;;;;;;0.00;0.00;;;17.70;99.90;;;;;;5016953;28;20447;-91
2022/08/10 06:12:39;;;;;;;0.00;0.00;;;17.80;99.90;;;;;;5001551;28;20507;-91
2022/08/10 06:15:23;;;;;;;0.00;0.00;;;17.90;99.90;;;;;;5006247;28;20480;-89
2022/08/10 06:18:14;;;;;;;0.00;0.00;;;18.00;99.90;;;;;;5020096;28;20450;-89
2022/08/10 06:20:43;;;;;;;0.00;0.00;;;18.10;99.90;;;;;;5017266;28;20511;-91
2022/08/10 06:23:12;;;;;;;0.00;0.00;;;18.20;99.90;;;;;;5005706;28;20460;-90
2022/08/10 06:25:43;;;;;;;0.00;0.00;;;18.30;99.90;;;;;;5019409;28;21095;-89
2022/08/10 06:28:29;;;;;;;0.00;0.00;;;18.30;99.90;;;;;;5006931;28;20486;-91
2022/08/10 06:31:01;;;;;;;0.00;0.00;;;18.50;99.90;;;;;;5009515;28;20479;-91
2022/08/10 06:33:33;;;;;;;0.00;0.00;;;18.60;99.90;;;;;;5005852;28;20450;-90
2022/08/10 06:36:03;;;;;;;0.00;0.00;;;18.60;99.90;;;;;;5016778;28;20450;-91
2022/08/10 06:38:33;;;;;;;0.00;0.00;;;18.70;99.90;;;;;;5008200;28;20445;-89
2022/08/10 06:41:21;;;;;;;0.00;0.00;;;18.80;99.90;;;;;;5006810;28;21135;-90
2022/08/10 06:44:15;;;;;;;0.00;0.00;;;18.90;99.90;;;;;;5011565;28;20449;-87
2022/08/10 06:46:50;;;;;;;0.00;0.00;;;18.90;99.90;;;;;;5006501;28;20429;-91
2022/08/10 06:49:22;;;;;;;0.00;0.00;;;19.00;99.90;;;;;;5005014;28;21028;-90
2022/08/10 06:51:53;;;;;;;0.00;0.00;;;19.10;99.90;;;;;;5009755;28;20488;-90
2022/08/10 06:54:27;;;;;;;0.00;0.00;;;19.10;99.90;;;;;;5000291;28;21060;-90
2022/08/10 06:56:56;;;;;;;0.00;0.00;;;19.20;99.90;;;;;;5016144;28;20518;-90
2022/08/10 06:59:46;;;;;;;0.00;0.00;;;19.30;99.90;;;;;;5009193;28;21010;-90
2022/08/10 07:02:35;;;;;;;0.00;0.00;;;19.50;99.90;;;;;;5022097;28;20485;-89
2022/08/10 07:05:06;;;;;;;0.00;0.00;;;19.50;99.90;;;;;;5021264;28;20459;-89
2022/08/10 07:07:37;;;;;;;0.00;0.00;;;19.70;99.90;;;;;;5004944;28;20458;-89
2022/08/10 07:10:20;;;;;;;0.00;0.00;;;19.70;99.90;;;;;;5004387;28;20569;-89
2022/08/10 07:12:56;;;;;;;0.00;0.00;;;19.90;99.90;;;;;;5009108;28;20589;-89
2022/08/10 07:15:26;;;;;;;0.00;0.00;;;19.90;99.90;;;;;;5005560;28;20450;-89
2022/08/10 07:18:17;;;;;;;0.00;0.00;;;20.00;99.90;;;;;;5012007;28;20533;-87
2022/08/10 07:20:47;;;;;;;0.00;0.00;;;20.10;99.90;;;;;;5004611;28;20521;-90
2022/08/10 07:23:17;;;;;;;0.00;0.00;;;20.20;99.90;;;;;;5002524;28;20463;-90
2022/08/10 07:26:08;;;;;;;0.00;0.00;;;20.30;99.90;;;;;;5006214;28;20438;-88
2022/08/10 07:28:37;;;;;;;0.00;0.00;;;20.30;99.90;;;;;;5002990;28;20912;-92
2022/08/10 07:31:06;;;;;;;0.00;0.00;;;20.40;99.90;;;;;;4998973;28;21009;-93
2022/08/10 07:33:58;;;;;;;0.00;0.00;;;20.50;99.90;;;;;;5014518;28;20472;-91
2022/08/10 07:36:28;;;;;;;0.00;0.00;;;20.60;99.90;;;;;;4998790;28;20950;-92
2022/08/10 07:38:59;;;;;;;0.00;0.00;;;20.60;99.90;;;;;;4994324;28;20936;-91
2022/08/10 07:41:30;;;;;;;0.00;0.00;;;20.70;99.90;;;;;;4995204;28;20544;-91
2022/08/10 07:44:01;;;;;;;0.00;0.00;;;20.70;99.90;;;;;;4998859;28;20451;-91
2022/08/10 07:46:33;;;;;;;0.00;0.00;;;20.90;99.90;;;;;;5005420;28;20442;-92
2022/08/10 07:49:06;;;;;;;0.00;0.00;;;21.00;99.90;;;;;;5014630;28;20414;-90
2022/08/10 07:51:48;;;;;;;0.00;0.00;;;21.00;99.90;;;;;;5003682;28;20576;-92
2022/08/10 07:54:24;;;;;;;0.00;0.00;;;21.00;99.90;;;;;;5010682;28;21066;-92
2022/08/10 07:56:59;;;;;;;0.00;0.00;;;21.10;99.90;;;;;;5013167;28;20529;-89
2022/08/10 07:59:36;;;;;;;0.00;0.00;;;21.10;99.90;;;;;;5012907;28;20454;-90
2022/08/10 08:02:08;;;;;;;0.00;0.00;;;21.20;99.90;;;;;;5021032;28;20519;-90
2022/08/10 08:04:39;;;;;;;0.00;0.00;;;21.30;99.90;;;;;;5031292;28;20450;-90
2022/08/10 08:07:08;;;;;;;0.00;0.00;;;21.30;99.90;;;;;;5017444;28;20450;-90
2022/08/10 08:09:37;;;;;;;0.00;0.00;;;21.40;99.90;;;;;;5018047;28;20533;-90
2022/08/10 08:12:26;;;;;;;0.00;0.00;;;21.40;99.90;;;;;;5015595;28;20545;-89
2022/08/10 08:14:56;;;;;;;0.00;0.00;;;21.50;99.90;;;;;;5015832;28;20454;-91
2022/08/10 08:17:25;;;;;;;0.00;0.00;;;21.60;99.90;;;;;;5023714;28;20473;-91
2022/08/10 08:20:06;;;;;;;0.00;0.00;;;21.70;99.90;;;;;;5032487;28;21034;-92
2022/08/10 08:22:37;;;;;;;0.00;0.00;;;21.70;99.90;;;;;;5031154;28;20473;-91
2022/08/10 08:25:25;;;;;;;0.00;0.00;;;21.70;99.90;;;;;;5031253;28;20514;-87
2022/08/10 08:27:56;;;;;;;0.00;0.00;;;21.80;99.90;;;;;;5031181;28;20447;-91
2022/08/10 08:30:24;;;;;;;0.00;0.00;;;21.90;99.90;;;;;;5031430;28;20450;-91
2022/08/10 08:32:56;;;;;;;0.00;0.00;;;21.90;99.90;;;;;;5031357;28;20496;-91
2022/08/10 08:35:26;;;;;;;0.00;0.00;;;22.00;99.90;;;;;;5027364;28;20434;-90
2022/08/10 08:37:55;;;;;;;0.00;0.00;;;22.00;99.90;;;;;;5024304;28;20426;-91
2022/08/10 08:41:03;;;;;;;0.00;0.00;;;22.00;99.90;;;;;;5022545;28;20467;-92
2022/08/10 08:43:52;;;;;;;0.00;0.00;;;22.00;99.90;;;;;;5019890;28;20474;-92
2022/08/10 08:47:05;;;;;;;0.00;0.00;;;22.00;99.90;;;;;;5021015;28;20481;-88
2022/08/10 08:50:16;;;;;;;0.00;0.00;;;22.10;99.90;;;;;;5010567;28;20476;-91
2022/08/10 08:52:53;;;;;;;0.00;0.00;;;22.20;99.90;;;;;;5013362;28;20542;-90
2022/08/10 08:55:45;;;;;;;0.00;0.00;;;22.30;99.90;;;;;;5011412;28;20450;-91
2022/08/10 08:58:52;;;;;;;0.00;0.00;;;22.50;99.90;;;;;;5011350;28;20438;-91
2022/08/10 09:01:36;;;;;;;0.00;0.00;;;22.60;99.90;;;;;;5013440;28;20953;-90
2022/08/10 09:07:44;;;;;;;0.00;0.00;;;22.80;99.90;;;;;;5012587;28;20478;-90
2022/08/10 09:10:45;;;;;;;0.00;0.00;;;22.90;99.90;;;;;;5016641;28;20517;-90
2022/08/10 09:13:30;;;;;;;0.00;0.00;;;22.90;99.90;;;;;;5014676;28;20496;-91
2022/08/10 09:16:22;;;;;;;0.00;0.00;;;23.00;99.90;;;;;;5014914;28;21061;-91
2022/08/10 09:19:03;;;;;;;0.00;0.00;;;23.00;99.90;;;;;;4936062;29;20481;-91
2022/08/10 09:21:39;;;;;;;0.00;0.00;;;23.00;99.90;;;;;;4946814;29;20521;-91
2022/08/10 09:24:31;;;;;;;0.00;0.00;;;23.00;99.90;;;;;;4937607;29;20464;-92
2022/08/10 09:27:13;;;;;;;0.00;0.00;;;23.10;99.90;;;;;;4931580;29;20947;-90
2022/08/10 09:29:50;;;;;;;0.00;0.00;;;23.10;99.90;;;;;;4928411;29;20508;-90
2022/08/10 09:32:38;;;;;;;0.00;0.00;;;23.10;99.90;;;;;;4925571;29;20809;-90
2022/08/10 09:35:31;;;;;;;0.00;0.00;;;23.20;99.90;;;;;;4927760;29;20827;-91
2022/08/10 09:38:28;;;;;;;0.00;0.00;;;23.30;99.90;;;;;;4910453;28;20611;-90
2022/08/10 09:41:14;;;;;;;0.00;0.00;;;23.30;99.90;;;;;;4928535;29;20527;-91
2022/08/10 09:43:50;;;;;;;0.00;0.00;;;23.40;99.90;;;;;;4984747;28;20487;-89
2022/08/10 09:46:37;;;;;;;0.00;0.00;;;23.50;99.90;;;;;;5007072;28;20444;-90
2022/08/10 09:49:15;;;;;;;0.00;0.00;;;23.50;99.90;;;;;;5007095;28;20477;-91
2022/08/10 09:51:54;;;;;;;0.00;0.00;;;23.60;99.90;;;;;;5008196;28;20476;-91
2022/08/10 09:54:35;;;;;;;0.00;0.00;;;23.50;99.90;;;;;;5021904;28;20440;-89
2022/08/10 09:57:15;;;;;;;0.00;0.00;;;23.50;99.90;;;;;;5008612;28;20462;-92
2022/08/10 10:00:09;;;;;;;0.00;0.00;;;23.60;99.90;;;;;;5008649;28;20444;-91
2022/08/10 10:02:52;;;;;;;0.00;0.00;;;23.60;99.90;;;;;;5018416;28;20500;-90
2022/08/10 10:05:45;;;;;;;0.00;0.00;;;23.60;99.90;;;;;;5028046;28;20627;-91
2022/08/10 10:08:29;;;;;;;0.00;0.00;;;23.60;99.90;;;;;;5021980;28;20473;-92
2022/08/10 10:11:07;;;;;;;0.00;0.00;;;23.70;99.90;;;;;;5023449;28;20471;-90
2022/08/10 10:13:46;;;;;;;0.00;0.00;;;23.80;99.90;;;;;;5020980;28;20478;-90
2022/08/10 10:16:52;;;;;;;0.00;0.00;;;23.90;99.90;;;;;;5021328;28;20515;-92
2022/08/10 10:19:45;;;;;;;0.00;0.00;;;24.00;99.90;;;;;;5012085;28;20424;-91
2022/08/10 10:22:31;;;;;;;0.00;0.00;;;24.10;99.90;;;;;;5009426;28;20566;-91
2022/08/10 10:25:04;;;;;;;0.00;0.00;;;24.10;99.90;;;;;;5012731;28;20478;-91
2022/08/10 10:27:58;;;;;;;0.00;0.00;;;24.10;99.90;;;;;;5025196;28;20578;-91
2022/08/10 10:30:36;;;;;;;0.00;0.00;;;24.20;99.90;;;;;;5013313;28;20444;-91
2022/08/10 10:33:13;;;;;;;0.00;0.00;;;24.20;99.90;;;;;;5010477;28;20442;-91
2022/08/10 10:35:48;;;;;;;0.00;0.00;;;24.20;99.90;;;;;;5010537;28;20968;-91
2022/08/10 10:38:21;;;;;;;0.00;0.00;;;24.20;99.90;;;;;;5010905;28;20477;-91
2022/08/10 10:40:55;;;;;;;0.00;0.00;;;24.30;99.90;;;;;;5027361;28;20769;-91
2022/08/10 10:43:39;;;;;;;0.00;0.00;;;24.30;99.90;;;;;;5028655;28;20675;-91
2022/08/10 10:46:22;;;;;;;0.00;0.00;;;24.40;99.90;;;;;;5029178;28;20430;-91
2022/08/10 10:59:14;;;;;;;0.00;0.00;;;24.40;99.90;;;;;;5018967;28;20720;-91
2022/08/10 11:02:21;;;;;;;0.00;0.00;;;24.40;99.90;;;;;;5018754;28;20479;-91
2022/08/10 11:05:01;;;;;;;0.00;0.00;;;24.50;99.90;;;;;;5026725;28;20521;-92
2022/08/10 11:07:38;;;;;;;0.00;0.00;;;24.50;99.90;;;;;;5013093;28;20456;-90
2022/08/10 11:10:10;;;;;;;0.00;0.00;;;24.50;99.90;;;;;;5015216;28;20518;-91
2022/08/10 11:13:18;;;;;;;0.00;0.00;;;24.60;99.90;;;;;;5010780;28;20455;-92
2022/08/10 11:16:11;;;;;;;0.00;0.00;;;24.60;99.90;;;;;;5017422;28;20508;-90
2022/08/10 11:18:53;;;;;;;0.00;0.00;;;24.70;99.90;;;;;;5019371;28;20495;-92
2022/08/10 11:21:31;;;;;;;0.00;0.00;;;24.70;99.90;;;;;;5014345;28;20467;-90
2022/08/10 11:24:07;;;;;;;0.00;0.00;;;24.70;99.90;;;;;;5013214;28;20464;-92
2022/08/10 11:27:02;;;;;;;0.00;0.00;;;24.70;99.90;;;;;;5014193;28;20838;-90
2022/08/10 11:29:37;;;;;;;0.00;0.00;;;24.70;99.90;;;;;;5015841;28;20940;-91
2022/08/10 11:32:17;;;;;;;0.00;0.00;;;24.70;99.90;;;;;;5013909;28;20488;-90
2022/08/10 11:34:59;;;;;;;0.00;0.00;;;24.80;99.90;;;;;;5018372;28;20541;-91
2022/08/10 11:37:49;;;;;;;0.00;0.00;;;24.80;99.90;;;;;;5019789;28;20455;-90
2022/08/10 11:40:44;;;;;;;0.00;0.00;;;24.80;99.90;;;;;;5022646;28;20480;-91
2022/08/10 11:43:20;;;;;;;0.00;0.00;;;24.80;99.90;;;;;;5022490;28;20748;-89
2022/08/10 11:45:54;;;;;;;0.00;0.00;;;24.80;99.90;;;;;;5023170;28;20451;-89
2022/08/10 11:48:33;;;;;;;0.00;0.00;;;24.90;99.90;;;;;;5018535;28;20461;-91
2022/08/10 11:51:26;;;;;;;0.00;0.00;;;25.00;99.90;;;;;;5026725;28;20470;-91
2022/08/10 11:54:05;;;;;;;0.00;0.00;;;25.00;99.90;;;;;;5018208;28;20499;-91
2022/08/10 11:56:44;;;;;;;0.00;0.00;;;25.10;99.90;;;;;;5012099;28;20780;-91
2022/08/10 12:02:00;;;;;;;0.00;0.00;;;25.20;99.90;;;;;;5021545;28;20511;-90
2022/08/10 12:04:30;;;;;;;0.00;0.00;;;25.30;99.90;;;;;;5025463;28;20456;-92
2022/08/10 12:07:03;;;;;;;0.00;0.00;;;25.40;99.90;;;;;;5020614;28;20472;-91
2022/08/10 12:09:54;;;;;;;0.00;0.00;;;25.40;99.90;;;;;;5012144;28;20527;-91
2022/08/10 12:12:44;;;;;;;0.00;0.00;;;25.40;99.90;;;;;;5011398;28;20502;-92
2022/08/10 12:15:23;;;;;;;0.00;0.00;;;25.50;99.90;;;;;;5009185;28;20467;-92
2022/08/10 12:17:55;;;;;;;0.00;0.00;;;25.50;99.90;;;;;;5010079;28;20484;-92
2022/08/10 12:20:28;;;;;;;0.00;0.00;;;25.50;99.90;;;;;;5008234;28;20988;-92
2022/08/10 12:23:01;;;;;;;0.00;0.00;;;25.50;99.90;;;;;;5007847;28;20526;-90
2022/08/10 12:25:42;;;;;;;0.00;0.00;;;25.50;99.90;;;;;;5006945;28;20468;-91
2022/08/10 12:28:31;;;;;;;0.00;0.00;;;25.60;99.90;;;;;;5010828;28;20456;-91
2022/08/10 12:31:25;;;;;;;0.00;0.00;;;25.60;99.90;;;;;;5014514;28;20483;-91
2022/08/10 12:34:09;;;;;;;0.00;0.00;;;25.60;99.90;;;;;;5011686;28;20452;-91
2022/08/10 12:36:44;;;;;;;0.00;0.00;;;25.70;99.90;;;;;;5007508;28;20461;-90
2022/08/10 12:39:16;;;;;;;0.00;0.00;;;25.70;99.90;;;;;;5007628;28;20548;-92
2022/08/10 12:41:52;;;;;;;0.00;0.00;;;25.80;99.90;;;;;;5007855;28;20474;-91
2022/08/10 12:44:30;;;;;;;0.00;0.00;;;25.80;99.90;;;;;;5007201;28;20455;-92
2022/08/10 12:47:18;;;;;;;0.00;0.00;;;25.90;99.80;;;;;;5008658;28;20466;-91
2022/08/10 12:49:52;;;;;;;0.00;0.00;;;26.00;99.90;;;;;;5009932;28;20764;-91
2022/08/10 12:52:49;;;;;;;0.00;0.00;;;26.00;99.60;;;;;;5009072;28;20531;-91
2022/08/10 12:55:19;;;;;;;0.00;0.00;;;26.10;98.90;;;;;;5008163;28;20488;-91
2022/08/10 12:57:54;;;;;;;0.00;0.00;;;26.10;99.10;;;;;;5008753;28;20456;-90
2022/08/10 13:00:30;;;;;;;0.00;0.00;;;26.10;98.20;;;;;;5009447;28;20459;-90
2022/08/10 13:03:00;;;;;;;0.00;0.00;;;26.10;98.20;;;;;;5018436;28;20485;-90
2022/08/10 13:05:31;;;;;;;0.00;0.00;;;26.10;98.60;;;;;;5027849;28;20447;-90
2022/08/10 13:11:09;;;;;;;0.00;0.00;;;26.20;98.60;;;;;;5013598;28;20485;-89
2022/08/10 13:14:03;;;;;;;0.00;0.00;;;26.20;98.60;;;;;;5012552;28;20435;-90
2022/08/10 13:16:32;;;;;;;0.00;0.00;;;26.30;98.60;;;;;;5012425;28;20450;-90
2022/08/10 13:19:06;;;;;;;0.00;0.00;;;26.40;98.70;;;;;;5016573;28;20460;-89
2022/08/10 13:21:37;;;;;;;0.00;0.00;;;26.40;98.90;;;;;;5017147;28;20525;-90
2022/08/10 13:24:11;;;;;;;0.00;0.00;;;26.50;98.60;;;;;;5010445;28;20562;-90
2022/08/10 13:26:43;;;;;;;0.00;0.00;;;26.50;98.50;;;;;;5009111;28;21013;-89
2022/08/10 13:29:39;;;;;;;0.00;0.00;;;26.50;98.60;;;;;;5009709;28;20474;-90
2022/08/10 13:32:09;;;;;;;0.00;0.00;;;26.40;98.70;;;;;;5012958;28;20583;-90
2022/08/10 13:34:44;;;;;;;0.00;0.00;;;26.40;98.90;;;;;;5012709;28;20460;-90
2022/08/10 13:37:17;;;;;;;0.00;0.00;;;26.50;98.20;;;;;;5013480;28;20510;-90
2022/08/10 13:39:49;;;;;;;0.00;0.00;;;26.50;98.10;;;;;;5011801;28;20943;-91
2022/08/10 13:42:31;;;;;;;0.00;0.00;;;26.60;98.30;;;;;;5010358;28;20514;-91
2022/08/10 13:45:09;;;;;;;0.00;0.00;;;26.60;98.40;;;;;;5010590;28;20456;-91
2022/08/10 13:47:39;;;;;;;0.00;0.00;;;26.60;98.80;;;;;;5007584;28;20452;-90
2022/08/10 13:50:22;;;;;;;0.00;0.00;;;26.70;98.40;;;;;;5005109;28;20454;-91
2022/08/10 13:53:08;;;;;;;0.00;0.00;;;26.70;98.00;;;;;;5009614;28;20436;-91
2022/08/10 13:55:43;;;;;;;0.00;0.00;;;26.60;98.30;;;;;;5009815;28;20416;-90
2022/08/10 13:58:25;;;;;;;0.00;0.00;;;26.60;98.40;;;;;;5010825;28;20559;-90
2022/08/10 14:00:56;;;;;;;0.00;0.00;;;26.60;98.40;;;;;;5013652;28;20459;-90
2022/08/10 14:03:26;;;;;;;0.00;0.00;;;26.60;98.60;;;;;;5018528;28;20475;-91
2022/08/10 14:05:58;;;;;;;0.00;0.00;;;26.60;99.00;;;;;;5020996;28;20455;-91
2022/08/10 14:08:31;;;;;;;0.00;0.00;;;26.50;99.20;;;;;;5012568;28;20456;-89